Seapower — 9HA4550 — position and weather

sailwx.info

Track history (hours):
 
Tides and Currents Weather Stations Pressure Air Temp Water Temp Dewpoint Dewpoint Depression Visibility Wind Speed Wind Dir Waves Ship Positions

Seapower

Last reported at 2018-Jul-03 18:25 UTC. Time now 2018-Jul-17 09:38 UTC.
Position N 36°06' W 005°10'.
Warning: this ship's position is 13 days out of date.

Length 101 m; draft 4.5 m.

Type: Ship (hazmat cat B). MMSI: 248180000.

Date/timePositionNaut miles runAvg speedWind from/ knotsBaromVisibWave heightAir tempDewpointWater temp
2018-Jul-03 18:25N 36°06' W 005°10'511.8
2018-Jul-03 18:00N 36°05' W 005°16'7 6.7
2018-Jul-03 17:01N 36°09' W 005°22'0 3.5
2018-Jul-03 17:00N 36°09' W 005°22'0 0.1
2018-Jul-03 14:11N 36°09' W 005°22'2 0.4
2018-Jul-03 08:55N 36°06' W 005°22'2 3.4
2018-Jul-03 08:26N 36°05' W 005°20'1 2.8
2018-Jul-03 07:58N 36°05' W 005°19'0 0.9
2018-Jul-03 07:30N 36°05' W 005°19'1 1.9
2018-Jul-03 07:00N 36°04' W 005°19'3 6.7
2018-Jul-03 06:30N 36°02' W 005°23'510.4
2018-Jul-03 06:00N 35°58' W 005°27'  
2018-Jun-29 22:18N 39°02' W 010°13'  
2018-Jun-25 03:30N 39°21' W 009°51'510.8
2018-Jun-25 03:00N 39°16' W 009°51'510.7
2018-Jun-25 02:30N 39°10' W 009°52'510.8
2018-Jun-25 02:00N 39°05' W 009°52'510.7
2018-Jun-25 01:30N 38°60' W 009°51'610.8
2018-Jun-25 00:59N 38°54' W 009°51'510.7
2018-Jun-25 00:30N 38°49' W 009°51'510.3
2018-Jun-25 00:00N 38°44' W 009°52'510.7
2018-Jun-24 23:30N 38°39' W 009°51'510.8
2018-Jun-24 23:00N 38°33' W 009°49'510.3
2018-Jun-24 22:29N 38°28' W 009°48'2210.3
2018-Jun-24 20:24N 38°07' W 009°41'410.4
2018-Jun-24 19:58N 38°03' W 009°40'510.3
2018-Jun-24 19:30N 37°58' W 009°39'810.4
2018-Jun-24 18:45N 37°50' W 009°36'310.4
2018-Jun-24 18:29N 37°48' W 009°36'610.7
2018-Jun-24 17:55N 37°42' W 009°34'71 9.6
2018-Jun-24 10:32N 36°40' W 008°52'  
Track history (hours):
 
Tides and Currents Weather Stations Pressure Air Temp Water Temp Dewpoint Dewpoint Depression Visibility Wind Speed Wind Dir Waves Ship Positions

Seapower

Last reported at 2018-Jul-03 18:25 UTC. Time now 2018-Jul-17 09:38 UTC.
Position N 36°06' W 005°10'.
Warning: this ship's position is 13 days out of date.

Length 101 m; draft 4.5 m.

Type: Ship (hazmat cat B). MMSI: 248180000.

Date/timePositionNaut miles runAvg speedWind from/ knotsBaromVisibWave heightAir tempDewpointWater temp
2018-Jul-03 18:25N 36°06' W 005°10'511.8
2018-Jul-03 18:00N 36°05' W 005°16'7 6.7
2018-Jul-03 17:01N 36°09' W 005°22'0 3.5
2018-Jul-03 17:00N 36°09' W 005°22'0 0.1
2018-Jul-03 14:11N 36°09' W 005°22'2 0.4
2018-Jul-03 08:55N 36°06' W 005°22'2 3.4
2018-Jul-03 08:26N 36°05' W 005°20'1 2.8
2018-Jul-03 07:58N 36°05' W 005°19'0 0.9
2018-Jul-03 07:30N 36°05' W 005°19'1 1.9
2018-Jul-03 07:00N 36°04' W 005°19'3 6.7
2018-Jul-03 06:30N 36°02' W 005°23'510.4
2018-Jul-03 06:00N 35°58' W 005°27'  
2018-Jun-29 22:18N 39°02' W 010°13'  
2018-Jun-25 03:30N 39°21' W 009°51'510.8
2018-Jun-25 03:00N 39°16' W 009°51'510.7
2018-Jun-25 02:30N 39°10' W 009°52'510.8
2018-Jun-25 02:00N 39°05' W 009°52'510.7
2018-Jun-25 01:30N 38°60' W 009°51'610.8
2018-Jun-25 00:59N 38°54' W 009°51'510.7
2018-Jun-25 00:30N 38°49' W 009°51'510.3
2018-Jun-25 00:00N 38°44' W 009°52'510.7
2018-Jun-24 23:30N 38°39' W 009°51'510.8
2018-Jun-24 23:00N 38°33' W 009°49'510.3
2018-Jun-24 22:29N 38°28' W 009°48'2210.3
2018-Jun-24 20:24N 38°07' W 009°41'410.4
2018-Jun-24 19:58N 38°03' W 009°40'510.3
2018-Jun-24 19:30N 37°58' W 009°39'810.4
2018-Jun-24 18:45N 37°50' W 009°36'310.4
2018-Jun-24 18:29N 37°48' W 009°36'610.7
2018-Jun-24 17:55N 37°42' W 009°34'71 9.6
2018-Jun-24 10:32N 36°40' W 008°52'  

Dump ship's entire track history